N12VJ KSFO-KMRY
Flight info
| Callsign | N12VJ |
|---|---|
| Flight time | 0h 29m |
| Altitude | 14999 |
| Route | DCT SFO DCT EUGEN DCT |
| Aircraft | SF50/L-SDGRWY/L |
Departure
| Time | 2026-04-21 00:52 |
|---|---|
| Airport | San Francisco International Airport (KSFO) |
Arrival
| Time | 2026-04-21 01:21 |
|---|---|
| Airport | Monterey Regional Airport (KMRY) |
| Time | Latitude | Longitude | Altitude | Speed | Heading |
|---|---|---|---|---|---|
| 2026-04-21 00:48 | 37.62468 | -122.37901 | 12 ft | 11 kts | 263° |
| 2026-04-21 00:49 | 37.62471 | -122.38003 | 11 ft | 16 kts | 287° |
| 2026-04-21 00:49 | 37.62532 | -122.38160 | 11 ft | 21 kts | 296° |
| 2026-04-21 00:49 | 37.62598 | -122.38314 | 8 ft | 24 kts | 300° |
| 2026-04-21 00:49 | 37.62679 | -122.38508 | 10 ft | 24 kts | 298° |
| 2026-04-21 00:50 | 37.62754 | -122.38680 | 12 ft | 19 kts | 298° |
| 2026-04-21 00:50 | 37.62803 | -122.38800 | 15 ft | 12 kts | 298° |
| 2026-04-21 00:50 | 37.62841 | -122.38886 | 15 ft | 11 kts | 295° |
| 2026-04-21 00:50 | 37.62847 | -122.38923 | 14 ft | 3 kts | 150° |
| 2026-04-21 00:51 | 37.62786 | -122.38914 | 14 ft | 9 kts | 189° |
| 2026-04-21 00:51 | 37.62782 | -122.38915 | 14 ft | 0 kts | 188° |
| 2026-04-21 00:52 | 37.62715 | -122.38894 | 14 ft | 37 kts | 142° |
| 2026-04-21 00:52 | 37.62467 | -122.38363 | 20 ft | 100 kts | 123° |
| 2026-04-21 00:52 | 37.62100 | -122.37571 | 403 ft | 117 kts | 123° |
| 2026-04-21 00:52 | 37.61716 | -122.36640 | 1124 ft | 118 kts | 126° |
| 2026-04-21 00:53 | 37.61481 | -122.35523 | 1677 ft | 139 kts | 104° |
| 2026-04-21 00:53 | 37.61497 | -122.34324 | 2416 ft | 149 kts | 89° |
| 2026-04-21 00:53 | 37.61881 | -122.32999 | 2890 ft | 175 kts | 66° |
| 2026-04-21 00:53 | 37.62595 | -122.31621 | 3346 ft | 195 kts | 63° |
| 2026-04-21 00:54 | 37.63354 | -122.30137 | 3870 ft | 207 kts | 63° |
| 2026-04-21 00:54 | 37.64164 | -122.28578 | 4392 ft | 217 kts | 62° |
| 2026-04-21 00:54 | 37.64711 | -122.27500 | 4735 ft | 222 kts | 63° |
| 2026-04-21 00:54 | 37.65544 | -122.25814 | 5243 ft | 231 kts | 63° |
| 2026-04-21 00:55 | 37.66406 | -122.24082 | 5869 ft | 234 kts | 63° |
| 2026-04-21 00:55 | 37.67281 | -122.22331 | 6502 ft | 237 kts | 63° |
| 2026-04-21 00:55 | 37.67923 | -122.20472 | 7089 ft | 227 kts | 89° |
| 2026-04-21 00:55 | 37.67932 | -122.18532 | 7702 ft | 219 kts | 103° |
| 2026-04-21 00:56 | 37.67865 | -122.16613 | 8319 ft | 219 kts | 103° |
| 2026-04-21 00:56 | 37.67817 | -122.14697 | 8957 ft | 215 kts | 106° |
| 2026-04-21 00:56 | 37.67342 | -122.13069 | 9536 ft | 188 kts | 142° |
| 2026-04-21 00:56 | 37.66306 | -122.12281 | 10044 ft | 170 kts | 171° |
| 2026-04-21 00:57 | 37.65146 | -122.11991 | 10534 ft | 169 kts | 181° |
| 2026-04-21 00:57 | 37.63976 | -122.12113 | 11013 ft | 170 kts | 193° |
| 2026-04-21 00:57 | 37.62876 | -122.12673 | 11513 ft | 173 kts | 205° |
| 2026-04-21 00:57 | 37.61825 | -122.13426 | 12016 ft | 175 kts | 204° |
| 2026-04-21 00:58 | 37.60732 | -122.14115 | 12526 ft | 177 kts | 201° |
| 2026-04-21 00:58 | 37.59614 | -122.14776 | 13040 ft | 179 kts | 201° |
| 2026-04-21 00:58 | 37.58479 | -122.15447 | 13568 ft | 182 kts | 200° |
| 2026-04-21 00:58 | 37.57326 | -122.16131 | 14070 ft | 185 kts | 200° |
| 2026-04-21 00:59 | 37.56156 | -122.16826 | 14552 ft | 187 kts | 200° |
| 2026-04-21 00:59 | 37.54975 | -122.17526 | 15033 ft | 188 kts | 200° |
| 2026-04-21 00:59 | 37.53787 | -122.18232 | 15523 ft | 189 kts | 200° |
| 2026-04-21 00:59 | 37.52600 | -122.18935 | 15983 ft | 191 kts | 200° |
| 2026-04-21 01:00 | 37.51340 | -122.19678 | 16017 ft | 208 kts | 201° |
| 2026-04-21 01:00 | 37.49985 | -122.20484 | 16021 ft | 222 kts | 201° |
| 2026-04-21 01:00 | 37.48549 | -122.21339 | 16026 ft | 233 kts | 201° |
| 2026-04-21 01:00 | 37.47054 | -122.22226 | 16018 ft | 243 kts | 201° |
| 2026-04-21 01:01 | 37.45537 | -122.23128 | 16017 ft | 241 kts | 201° |
| 2026-04-21 01:01 | 37.44024 | -122.24025 | 16013 ft | 235 kts | 201° |
| 2026-04-21 01:01 | 37.42546 | -122.24896 | 16020 ft | 235 kts | 201° |
| 2026-04-21 01:01 | 37.41063 | -122.25771 | 16021 ft | 234 kts | 201° |
| 2026-04-21 01:02 | 37.39608 | -122.26631 | 16017 ft | 234 kts | 201° |
| 2026-04-21 01:02 | 37.38127 | -122.27508 | 16009 ft | 235 kts | 201° |
| 2026-04-21 01:02 | 37.36653 | -122.28378 | 16018 ft | 235 kts | 201° |
| 2026-04-21 01:02 | 37.35166 | -122.29252 | 16013 ft | 237 kts | 201° |
| 2026-04-21 01:03 | 37.33671 | -122.30134 | 16007 ft | 238 kts | 201° |
| 2026-04-21 01:03 | 37.32172 | -122.31019 | 16012 ft | 238 kts | 201° |
| 2026-04-21 01:03 | 37.30666 | -122.31905 | 16016 ft | 240 kts | 201° |
| 2026-04-21 01:03 | 37.29155 | -122.32794 | 16005 ft | 240 kts | 201° |
| 2026-04-21 01:04 | 37.27653 | -122.33680 | 16006 ft | 238 kts | 201° |
| 2026-04-21 01:04 | 37.26152 | -122.34560 | 16010 ft | 239 kts | 201° |
| 2026-04-21 01:04 | 37.24645 | -122.35447 | 15995 ft | 239 kts | 202° |
| 2026-04-21 01:04 | 37.23140 | -122.36336 | 16013 ft | 240 kts | 201° |
| 2026-04-21 01:05 | 37.21624 | -122.37226 | 16017 ft | 241 kts | 201° |
| 2026-04-21 01:05 | 37.20106 | -122.38116 | 16010 ft | 240 kts | 201° |
| 2026-04-21 01:05 | 37.18599 | -122.39001 | 16011 ft | 238 kts | 202° |
| 2026-04-21 01:05 | 37.17099 | -122.39880 | 16001 ft | 238 kts | 202° |
| 2026-04-21 01:06 | 37.15598 | -122.40741 | 16005 ft | 236 kts | 199° |
| 2026-04-21 01:06 | 37.14036 | -122.41351 | 16003 ft | 235 kts | 192° |
| 2026-04-21 01:06 | 37.12425 | -122.41667 | 16000 ft | 234 kts | 185° |
| 2026-04-21 01:06 | 37.10792 | -122.41683 | 16006 ft | 235 kts | 179° |
| 2026-04-21 01:07 | 37.09169 | -122.41397 | 16001 ft | 237 kts | 172° |
| 2026-04-21 01:07 | 37.07577 | -122.40805 | 15998 ft | 240 kts | 165° |
| 2026-04-21 01:07 | 37.06053 | -122.39908 | 15994 ft | 244 kts | 158° |
| 2026-04-21 01:07 | 37.04638 | -122.38717 | 16000 ft | 248 kts | 150° |
| 2026-04-21 01:08 | 37.03355 | -122.37232 | 16000 ft | 255 kts | 142° |
| 2026-04-21 01:08 | 37.02233 | -122.35485 | 15998 ft | 261 kts | 135° |
| 2026-04-21 01:08 | 37.01299 | -122.33508 | 16006 ft | 267 kts | 127° |
| 2026-04-21 01:08 | 37.00750 | -122.31940 | 16001 ft | 273 kts | 122° |
| 2026-04-21 01:09 | 37.00190 | -122.29637 | 16006 ft | 281 kts | 114° |
| 2026-04-21 01:09 | 36.99870 | -122.27188 | 16004 ft | 290 kts | 107° |
| 2026-04-21 01:09 | 36.99800 | -122.24637 | 15998 ft | 298 kts | 99° |
| 2026-04-21 01:09 | 36.99777 | -122.22084 | 15860 ft | 290 kts | 108° |
| 2026-04-21 01:10 | 36.99489 | -122.19596 | 15903 ft | 289 kts | 107° |
| 2026-04-21 01:10 | 36.99378 | -122.17072 | 16000 ft | 292 kts | 101° |
| 2026-04-21 01:10 | 36.99459 | -122.14504 | 16002 ft | 296 kts | 97° |
| 2026-04-21 01:10 | 36.99352 | -122.11992 | 15947 ft | 286 kts | 111° |
| 2026-04-21 01:11 | 36.98769 | -122.09711 | 15764 ft | 269 kts | 123° |
| 2026-04-21 01:11 | 36.97802 | -122.07821 | 15259 ft | 246 kts | 148° |
| 2026-04-21 01:11 | 36.96216 | -122.06909 | 14458 ft | 246 kts | 163° |
| 2026-04-21 01:11 | 36.94679 | -122.06206 | 14282 ft | 229 kts | 165° |
| 2026-04-21 01:12 | 36.93252 | -122.05345 | 13985 ft | 228 kts | 155° |
| 2026-04-21 01:12 | 36.91782 | -122.04744 | 13660 ft | 223 kts | 178° |
| 2026-04-21 01:12 | 36.90231 | -122.04883 | 13318 ft | 225 kts | 187° |
| 2026-04-21 01:12 | 36.88679 | -122.05171 | 12980 ft | 227 kts | 189° |
| 2026-04-21 01:13 | 36.87118 | -122.05477 | 12642 ft | 227 kts | 189° |
| 2026-04-21 01:13 | 36.85553 | -122.05784 | 12307 ft | 227 kts | 189° |
| 2026-04-21 01:13 | 36.83992 | -122.06076 | 11976 ft | 227 kts | 189° |
| 2026-04-21 01:13 | 36.82441 | -122.06357 | 11648 ft | 224 kts | 189° |
| 2026-04-21 01:14 | 36.80906 | -122.06627 | 11323 ft | 222 kts | 189° |
| 2026-04-21 01:14 | 36.79376 | -122.06888 | 10994 ft | 221 kts | 189° |
| 2026-04-21 01:14 | 36.77852 | -122.07142 | 10679 ft | 220 kts | 189° |
| 2026-04-21 01:14 | 36.76333 | -122.07327 | 10362 ft | 221 kts | 181° |
| 2026-04-21 01:15 | 36.74839 | -122.06780 | 10044 ft | 229 kts | 163° |
| 2026-04-21 01:15 | 36.73400 | -122.05908 | 9724 ft | 230 kts | 160° |
| 2026-04-21 01:15 | 36.72078 | -122.05045 | 9260 ft | 201 kts | 160° |
| 2026-04-21 01:15 | 36.70902 | -122.04247 | 8658 ft | 186 kts | 159° |
| 2026-04-21 01:16 | 36.69815 | -122.03500 | 8206 ft | 173 kts | 159° |
| 2026-04-21 01:16 | 36.68776 | -122.02789 | 7696 ft | 168 kts | 159° |
| 2026-04-21 01:16 | 36.67760 | -122.02101 | 7195 ft | 164 kts | 159° |
| 2026-04-21 01:16 | 36.66763 | -122.01436 | 6708 ft | 161 kts | 159° |
| 2026-04-21 01:17 | 36.65776 | -122.00785 | 6217 ft | 160 kts | 159° |
| 2026-04-21 01:17 | 36.64792 | -122.00132 | 5708 ft | 160 kts | 159° |
| 2026-04-21 01:17 | 36.63862 | -121.99370 | 5189 ft | 166 kts | 140° |
| 2026-04-21 01:17 | 36.63332 | -121.98144 | 4660 ft | 155 kts | 121° |
| 2026-04-21 01:18 | 36.62923 | -121.96953 | 4104 ft | 143 kts | 122° |
| 2026-04-21 01:18 | 36.62514 | -121.95867 | 3544 ft | 134 kts | 128° |
| 2026-04-21 01:18 | 36.62143 | -121.94802 | 3016 ft | 133 kts | 120° |
| 2026-04-21 01:18 | 36.61841 | -121.93757 | 2633 ft | 125 kts | 120° |
| 2026-04-21 01:19 | 36.61561 | -121.92775 | 2477 ft | 116 kts | 119° |
| 2026-04-21 01:19 | 36.61304 | -121.91846 | 2398 ft | 113 kts | 122° |
| 2026-04-21 01:19 | 36.61038 | -121.90953 | 2088 ft | 106 kts | 126° |
| 2026-04-21 01:19 | 36.60692 | -121.90079 | 1755 ft | 117 kts | 128° |
| 2026-04-21 01:20 | 36.60350 | -121.89230 | 1511 ft | 104 kts | 124° |
| 2026-04-21 01:20 | 36.60077 | -121.88438 | 1279 ft | 95 kts | 123° |
| 2026-04-21 01:20 | 36.59860 | -121.87720 | 929 ft | 85 kts | 122° |
| 2026-04-21 01:20 | 36.59592 | -121.87066 | 609 ft | 86 kts | 121° |
| 2026-04-21 01:21 | 36.59377 | -121.86369 | 392 ft | 86 kts | 119° |
| 2026-04-21 01:21 | 36.59135 | -121.85689 | 299 ft | 80 kts | 117° |
| 2026-04-21 01:21 | 36.58939 | -121.85133 | 194 ft | 57 kts | 116° |
| 2026-04-21 01:21 | 36.58809 | -121.84748 | 200 ft | 36 kts | 113° |
| 2026-04-21 01:22 | 36.58653 | -121.84303 | 237 ft | 71 kts | 117° |
| 2026-04-21 01:22 | 36.58500 | -121.83842 | 239 ft | 37 kts | 113° |
| 2026-04-21 01:22 | 36.58423 | -121.83641 | 248 ft | 19 kts | 134° |
| 2026-04-21 01:22 | 36.58350 | -121.83686 | 247 ft | 14 kts | 277° |